Main page
METAR-TAF:

METAR-TAF

Airports :

Bom Jesus da Lapa Airport

Bom Jesus da Lapa, Bahia, Brazil

latitude: 13-16S, longitude: 043-25W, elevation: 440 m

METAR: missing

Time: 23:52 (02:52 UTC)

Forecast

The report was made 5 hours and 52 minutes ago, at 21:00 UTC
Forecast valid from 24 at 00 UTC to 24 at 12 UTC
Wind 5 kt from the East
Visibility 10 km or more
Few clouds at a height of 3000 ft

TAF: SBLP 232100Z 2400/2412 09005KT 9999 FEW030 TX27/2400Z TN21/2408Z RMK PEA

Weather observations and forecasts of more than 4000 airports (METAR and TAF reports).

The available stations are represented by yellow and red dots on the map.

Hover mouse over dot to see the name of the station.

Then click to see weather observations and forecasts.

To change the map : click on the green buttons with a black cross to zoom in, on the green button with a dash to zoom out, or on the green arrows for adjacent maps.


METAR-TAF: